sensor_id;sensor_type;location;lat;lon;timestamp;pressure;altitude;pressure_sealevel;temperature;humidity
45323;BME280;31382;50.200;8.674;2023-05-23T00:04:06;100069.38;;;21.37;61.48
45323;BME280;31382;50.200;8.674;2023-05-23T00:09:07;100070.75;;;21.40;61.07
45323;BME280;31382;50.200;8.674;2023-05-23T00:14:09;100065.53;;;21.38;60.98
45323;BME280;31382;50.200;8.674;2023-05-23T00:19:11;100060.19;;;21.44;60.72
45323;BME280;31382;50.200;8.674;2023-05-23T00:24:15;100068.16;;;21.50;60.55
45323;BME280;31382;50.200;8.674;2023-05-23T00:29:19;100074.53;;;21.56;60.48
45323;BME280;31382;50.200;8.674;2023-05-23T00:34:20;100073.78;;;21.61;60.53
45323;BME280;31382;50.200;8.674;2023-05-23T00:39:22;100080.91;;;21.62;60.26
45323;BME280;31382;50.200;8.674;2023-05-23T00:44:23;100090.19;;;21.61;60.75
45323;BME280;31382;50.200;8.674;2023-05-23T00:49:25;100085.22;;;21.57;60.60
45323;BME280;31382;50.200;8.674;2023-05-23T00:54:29;100099.28;;;21.44;60.74
45323;BME280;31382;50.200;8.674;2023-05-23T00:59:34;100097.41;;;21.28;61.21
45323;BME280;31382;50.200;8.674;2023-05-23T01:04:37;100113.91;;;21.33;60.89
45323;BME280;31382;50.200;8.674;2023-05-23T01:09:39;100112.97;;;21.44;60.87
45323;BME280;31382;50.200;8.674;2023-05-23T01:14:46;100115.09;;;21.42;60.64
45323;BME280;31382;50.200;8.674;2023-05-23T01:19:58;100117.13;;;21.47;60.56
45323;BME280;31382;50.200;8.674;2023-05-23T01:30:23;100118.44;;;21.44;60.40
45323;BME280;31382;50.200;8.674;2023-05-23T01:35:26;100125.22;;;21.42;60.53
45323;BME280;31382;50.200;8.674;2023-05-23T01:40:28;100114.75;;;21.38;60.15
45323;BME280;31382;50.200;8.674;2023-05-23T01:45:30;100108.91;;;21.30;60.63
45323;BME280;31382;50.200;8.674;2023-05-23T01:50:32;100117.03;;;21.25;60.47
45323;BME280;31382;50.200;8.674;2023-05-23T01:55:34;100127.91;;;21.19;60.46
45323;BME280;31382;50.200;8.674;2023-05-23T02:00:35;100136.63;;;21.16;61.07
45323;BME280;31382;50.200;8.674;2023-05-23T02:05:37;100137.38;;;21.12;60.89
45323;BME280;31382;50.200;8.674;2023-05-23T02:10:38;100145.34;;;20.96;61.37
45323;BME280;31382;50.200;8.674;2023-05-23T02:15:40;100149.91;;;20.74;61.62
45323;BME280;31382;50.200;8.674;2023-05-23T02:20:42;100156.28;;;20.63;61.57
45323;BME280;31382;50.200;8.674;2023-05-23T02:25:43;100151.28;;;20.59;61.46
45323;BME280;31382;50.200;8.674;2023-05-23T02:30:45;100146.16;;;20.46;61.47
45323;BME280;31382;50.200;8.674;2023-05-23T02:35:46;100148.19;;;20.39;60.90
45323;BME280;31382;50.200;8.674;2023-05-23T02:40:50;100154.75;;;20.38;60.54
45323;BME280;31382;50.200;8.674;2023-05-23T02:45:53;100161.03;;;20.38;60.53
45323;BME280;31382;50.200;8.674;2023-05-23T02:50:55;100176.47;;;20.33;60.41
45323;BME280;31382;50.200;8.674;2023-05-23T02:55:56;100175.00;;;20.13;60.31
45323;BME280;31382;50.200;8.674;2023-05-23T03:00:58;100186.16;;;20.12;60.00
45323;BME280;31382;50.200;8.674;2023-05-23T03:06:01;100175.34;;;19.88;60.30
45323;BME280;31382;50.200;8.674;2023-05-23T03:11:03;100175.47;;;19.70;60.29
45323;BME280;31382;50.200;8.674;2023-05-23T03:16:05;100188.53;;;19.68;60.01
45323;BME280;31382;50.200;8.674;2023-05-23T03:21:07;100182.50;;;19.54;60.00
45323;BME280;31382;50.200;8.674;2023-05-23T03:26:09;100191.06;;;19.46;60.03
45323;BME280;31382;50.200;8.674;2023-05-23T03:31:12;100184.88;;;19.50;59.52
45323;BME280;31382;50.200;8.674;2023-05-23T03:36:13;100196.97;;;19.42;59.56
45323;BME280;31382;50.200;8.674;2023-05-23T03:41:15;100206.34;;;19.11;60.09
45323;BME280;31382;50.200;8.674;2023-05-23T03:46:17;100200.28;;;19.09;59.79
45323;BME280;31382;50.200;8.674;2023-05-23T03:51:19;100224.44;;;18.82;60.19
45323;BME280;31382;50.200;8.674;2023-05-23T03:56:21;100227.50;;;18.86;59.93
45323;BME280;31382;50.200;8.674;2023-05-23T04:01:23;100237.47;;;18.80;59.98
45323;BME280;31382;50.200;8.674;2023-05-23T04:06:25;100232.13;;;18.85;59.68
45323;BME280;31382;50.200;8.674;2023-05-23T04:11:27;100236.03;;;18.89;59.21
45323;BME280;31382;50.200;8.674;2023-05-23T04:16:29;100231.34;;;18.66;59.39
45323;BME280;31382;50.200;8.674;2023-05-23T04:21:33;100242.25;;;18.66;59.44
45323;BME280;31382;50.200;8.674;2023-05-23T04:26:35;100249.34;;;18.67;59.34
45323;BME280;31382;50.200;8.674;2023-05-23T04:31:36;100265.66;;;18.67;59.29
45323;BME280;31382;50.200;8.674;2023-05-23T04:36:38;100279.47;;;18.54;59.13
45323;BME280;31382;50.200;8.674;2023-05-23T04:41:41;100276.63;;;18.30;59.09
45323;BME280;31382;50.200;8.674;2023-05-23T04:46:42;100295.06;;;18.47;58.52
45323;BME280;31382;50.200;8.674;2023-05-23T04:51:45;100284.50;;;18.69;57.85
45323;BME280;31382;50.200;8.674;2023-05-23T04:56:47;100289.63;;;18.77;57.35
45323;BME280;31382;50.200;8.674;2023-05-23T05:01:48;100291.97;;;18.92;56.90
45323;BME280;31382;50.200;8.674;2023-05-23T05:06:49;100296.22;;;18.99;56.48
45323;BME280;31382;50.200;8.674;2023-05-23T05:11:52;100306.22;;;19.06;56.34
45323;BME280;31382;50.200;8.674;2023-05-23T05:16:54;100302.78;;;19.10;56.04
45323;BME280;31382;50.200;8.674;2023-05-23T05:21:57;100311.28;;;19.02;56.14
45323;BME280;31382;50.200;8.674;2023-05-23T05:27:00;100319.97;;;18.62;56.88
45323;BME280;31382;50.200;8.674;2023-05-23T05:32:02;100317.31;;;18.74;56.40
45323;BME280;31382;50.200;8.674;2023-05-23T05:37:03;100314.72;;;18.79;56.25
45323;BME280;31382;50.200;8.674;2023-05-23T05:42:05;100327.34;;;18.80;56.05
45323;BME280;31382;50.200;8.674;2023-05-23T05:47:06;100337.59;;;18.78;56.23
45323;BME280;31382;50.200;8.674;2023-05-23T05:52:08;100351.31;;;19.01;55.60
45323;BME280;31382;50.200;8.674;2023-05-23T05:57:09;100354.03;;;19.01;55.62
45323;BME280;31382;50.200;8.674;2023-05-23T06:02:10;100347.31;;;19.04;55.64
45323;BME280;31382;50.200;8.674;2023-05-23T06:07:12;100354.91;;;18.83;56.16
45323;BME280;31382;50.200;8.674;2023-05-23T06:12:14;100358.16;;;18.92;56.02
45323;BME280;31382;50.200;8.674;2023-05-23T06:17:15;100349.13;;;19.22;55.44
45323;BME280;31382;50.200;8.674;2023-05-23T06:22:17;100361.38;;;19.43;55.21
45323;BME280;31382;50.200;8.674;2023-05-23T06:27:18;100363.78;;;19.51;55.15
45323;BME280;31382;50.200;8.674;2023-05-23T06:32:20;100362.56;;;19.35;55.23
45323;BME280;31382;50.200;8.674;2023-05-23T06:37:21;100373.94;;;19.44;54.89
45323;BME280;31382;50.200;8.674;2023-05-23T06:42:23;100368.16;;;19.52;55.05
45323;BME280;31382;50.200;8.674;2023-05-23T06:47:24;100364.13;;;19.67;54.84
45323;BME280;31382;50.200;8.674;2023-05-23T06:52:25;100349.66;;;19.66;54.86
45323;BME280;31382;50.200;8.674;2023-05-23T06:57:27;100342.19;;;19.50;55.03
45323;BME280;31382;50.200;8.674;2023-05-23T07:02:28;100341.47;;;19.54;55.30
45323;BME280;31382;50.200;8.674;2023-05-23T07:07:30;100339.38;;;20.04;54.39
45323;BME280;31382;50.200;8.674;2023-05-23T07:12:31;100346.13;;;20.25;53.47
45323;BME280;31382;50.200;8.674;2023-05-23T07:17:35;100350.19;;;20.10;53.80
45323;BME280;31382;50.200;8.674;2023-05-23T07:22:36;100364.88;;;20.09;53.88
45323;BME280;31382;50.200;8.674;2023-05-23T07:27:38;100360.19;;;20.45;53.57
45323;BME280;31382;50.200;8.674;2023-05-23T07:32:40;100365.44;;;20.35;53.52
45323;BME280;31382;50.200;8.674;2023-05-23T07:37:42;100374.19;;;20.49;53.39
45323;BME280;31382;50.200;8.674;2023-05-23T07:42:44;100365.63;;;20.69;52.70
45323;BME280;31382;50.200;8.674;2023-05-23T07:47:45;100373.78;;;20.28;53.72
45323;BME280;31382;50.200;8.674;2023-05-23T07:52:46;100382.66;;;20.35;53.37
45323;BME280;31382;50.200;8.674;2023-05-23T07:57:48;100377.75;;;20.61;53.14
45323;BME280;31382;50.200;8.674;2023-05-23T08:02:49;100373.09;;;20.73;52.72
45323;BME280;31382;50.200;8.674;2023-05-23T08:07:51;100378.00;;;20.59;52.85
45323;BME280;31382;50.200;8.674;2023-05-23T08:12:54;100375.03;;;20.61;53.00
45323;BME280;31382;50.200;8.674;2023-05-23T08:17:56;100386.00;;;20.26;53.22
45323;BME280;31382;50.200;8.674;2023-05-23T08:23:01;100380.84;;;20.53;53.14
45323;BME280;31382;50.200;8.674;2023-05-23T08:28:02;100380.72;;;20.59;53.05
45323;BME280;31382;50.200;8.674;2023-05-23T08:33:04;100389.78;;;20.89;52.32
45323;BME280;31382;50.200;8.674;2023-05-23T08:38:06;100401.59;;;20.77;52.06
45323;BME280;31382;50.200;8.674;2023-05-23T08:43:08;100390.31;;;21.03;51.98
45323;BME280;31382;50.200;8.674;2023-05-23T08:48:12;100391.66;;;21.29;51.20
45323;BME280;31382;50.200;8.674;2023-05-23T08:53:15;100399.16;;;21.22;50.79
45323;BME280;31382;50.200;8.674;2023-05-23T08:58:21;100401.13;;;21.09;51.13
45323;BME280;31382;50.200;8.674;2023-05-23T09:03:24;100407.13;;;21.23;51.17
45323;BME280;31382;50.200;8.674;2023-05-23T09:08:27;100402.69;;;21.05;51.36
45323;BME280;31382;50.200;8.674;2023-05-23T09:13:29;100405.75;;;21.09;51.15
45323;BME280;31382;50.200;8.674;2023-05-23T09:18:39;100416.84;;;21.02;51.46
45323;BME280;31382;50.200;8.674;2023-05-23T09:23:41;100412.03;;;20.80;51.68
45323;BME280;31382;50.200;8.674;2023-05-23T09:28:43;100403.66;;;20.47;51.97
45323;BME280;31382;50.200;8.674;2023-05-23T09:33:46;100406.75;;;20.62;52.25
45323;BME280;31382;50.200;8.674;2023-05-23T09:38:48;100403.38;;;20.84;51.19
45323;BME280;31382;50.200;8.674;2023-05-23T09:43:53;100404.03;;;21.19;51.29
45323;BME280;31382;50.200;8.674;2023-05-23T09:48:55;100410.06;;;21.50;50.06
45323;BME280;31382;50.200;8.674;2023-05-23T09:53:56;100403.72;;;21.62;49.82
45323;BME280;31382;50.200;8.674;2023-05-23T09:58:58;100411.94;;;21.78;49.49
45323;BME280;31382;50.200;8.674;2023-05-23T10:04:02;100416.81;;;21.59;49.72
45323;BME280;31382;50.200;8.674;2023-05-23T10:09:05;100421.81;;;21.63;49.36
45323;BME280;31382;50.200;8.674;2023-05-23T10:14:09;100422.81;;;21.90;49.21
45323;BME280;31382;50.200;8.674;2023-05-23T10:19:23;100435.72;;;21.78;48.99
45323;BME280;31382;50.200;8.674;2023-05-23T10:24:26;100431.59;;;22.26;48.58
45323;BME280;31382;50.200;8.674;2023-05-23T10:29:28;100433.91;;;22.56;47.33
45323;BME280;31382;50.200;8.674;2023-05-23T10:34:42;100429.47;;;22.72;47.02
45323;BME280;31382;50.200;8.674;2023-05-23T10:39:58;100430.75;;;22.26;48.42
45323;BME280;31382;50.200;8.674;2023-05-23T10:45:21;100438.53;;;21.66;49.33
45323;BME280;31382;50.200;8.674;2023-05-23T10:50:34;100446.63;;;21.44;49.68
45323;BME280;31382;50.200;8.674;2023-05-23T10:55:36;100448.72;;;21.54;49.58
45323;BME280;31382;50.200;8.674;2023-05-23T11:00:37;100457.25;;;21.57;49.93
45323;BME280;31382;50.200;8.674;2023-05-23T11:05:46;100466.69;;;21.50;49.64
45323;BME280;31382;50.200;8.674;2023-05-23T11:10:59;100454.28;;;21.59;50.07
45323;BME280;31382;50.200;8.674;2023-05-23T11:16:24;100446.34;;;21.91;49.31
45323;BME280;31382;50.200;8.674;2023-05-23T11:21:27;100451.50;;;22.05;49.03
45323;BME280;31382;50.200;8.674;2023-05-23T11:26:30;100451.91;;;21.96;49.03
45323;BME280;31382;50.200;8.674;2023-05-23T11:31:36;100458.31;;;22.02;49.22
45323;BME280;31382;50.200;8.674;2023-05-23T11:36:38;100449.16;;;22.13;48.62
45323;BME280;31382;50.200;8.674;2023-05-23T11:41:41;100451.44;;;22.55;48.29
45323;BME280;31382;50.200;8.674;2023-05-23T11:46:58;100454.69;;;22.74;47.59
45323;BME280;31382;50.200;8.674;2023-05-23T11:52:01;100454.91;;;22.90;47.03
45323;BME280;31382;50.200;8.674;2023-05-23T11:57:02;100463.09;;;23.34;45.81
45323;BME280;31382;50.200;8.674;2023-05-23T12:02:05;100463.72;;;23.95;44.18
45323;BME280;31382;50.200;8.674;2023-05-23T12:07:07;100466.56;;;24.11;43.17
45323;BME280;31382;50.200;8.674;2023-05-23T12:12:09;100469.16;;;23.90;43.16
45323;BME280;31382;50.200;8.674;2023-05-23T12:17:11;100471.00;;;23.52;43.20
45323;BME280;31382;50.200;8.674;2023-05-23T12:22:14;100460.75;;;23.43;43.37
45323;BME280;31382;50.200;8.674;2023-05-23T12:27:15;100469.59;;;24.09;42.43
45323;BME280;31382;50.200;8.674;2023-05-23T12:32:18;100468.84;;;24.19;42.28
45323;BME280;31382;50.200;8.674;2023-05-23T12:37:20;100484.03;;;23.67;43.25
45323;BME280;31382;50.200;8.674;2023-05-23T12:42:22;100479.66;;;23.99;42.92
45323;BME280;31382;50.200;8.674;2023-05-23T12:47:23;100477.97;;;23.92;42.69
45323;BME280;31382;50.200;8.674;2023-05-23T12:52:25;100461.56;;;24.40;42.22
45323;BME280;31382;50.200;8.674;2023-05-23T12:57:26;100481.44;;;24.15;42.83
45323;BME280;31382;50.200;8.674;2023-05-23T13:02:28;100477.22;;;23.75;43.00
45323;BME280;31382;50.200;8.674;2023-05-23T13:07:29;100489.81;;;23.71;42.75
45323;BME280;31382;50.200;8.674;2023-05-23T13:12:31;100495.69;;;23.52;42.91
45323;BME280;31382;50.200;8.674;2023-05-23T13:17:33;100499.16;;;23.43;42.83
45323;BME280;31382;50.200;8.674;2023-05-23T13:22:34;100502.09;;;23.14;43.22
45323;BME280;31382;50.200;8.674;2023-05-23T13:27:36;100496.13;;;23.00;43.54
45323;BME280;31382;50.200;8.674;2023-05-23T13:32:37;100499.34;;;23.36;43.25
45323;BME280;31382;50.200;8.674;2023-05-23T13:37:39;100500.50;;;23.67;42.54
45323;BME280;31382;50.200;8.674;2023-05-23T13:42:41;100487.41;;;24.07;41.04
45323;BME280;31382;50.200;8.674;2023-05-23T13:47:43;100501.13;;;23.74;41.17
45323;BME280;31382;50.200;8.674;2023-05-23T13:52:44;100502.75;;;23.75;41.02
45323;BME280;31382;50.200;8.674;2023-05-23T13:57:49;100501.13;;;23.74;40.65
45323;BME280;31382;50.200;8.674;2023-05-23T14:02:50;100494.25;;;23.72;41.00
45323;BME280;31382;50.200;8.674;2023-05-23T14:07:52;100498.84;;;23.66;40.51
45323;BME280;31382;50.200;8.674;2023-05-23T14:12:54;100496.09;;;23.39;41.00
45323;BME280;31382;50.200;8.674;2023-05-23T14:17:55;100502.47;;;23.01;41.97
45323;BME280;31382;50.200;8.674;2023-05-23T14:22:57;100503.06;;;23.25;41.57
45323;BME280;31382;50.200;8.674;2023-05-23T14:27:59;100511.66;;;23.33;41.31
45323;BME280;31382;50.200;8.674;2023-05-23T14:33:00;100516.56;;;23.81;40.69
45323;BME280;31382;50.200;8.674;2023-05-23T14:38:02;100502.09;;;24.55;39.37
45323;BME280;31382;50.200;8.674;2023-05-23T14:43:03;100518.19;;;24.84;38.22
45323;BME280;31382;50.200;8.674;2023-05-23T14:48:05;100519.56;;;24.44;38.57
45323;BME280;31382;50.200;8.674;2023-05-23T14:53:07;100523.84;;;24.62;38.50
45323;BME280;31382;50.200;8.674;2023-05-23T14:58:08;100528.34;;;24.08;39.25
45323;BME280;31382;50.200;8.674;2023-05-23T15:03:09;100536.84;;;24.07;39.51
45323;BME280;31382;50.200;8.674;2023-05-23T15:08:11;100530.50;;;23.74;39.68
45323;BME280;31382;50.200;8.674;2023-05-23T15:13:13;100536.91;;;22.91;40.53
45323;BME280;31382;50.200;8.674;2023-05-23T15:18:14;100533.22;;;22.64;41.14
45323;BME280;31382;50.200;8.674;2023-05-23T15:23:36;100537.31;;;22.44;41.97
45323;BME280;31382;50.200;8.674;2023-05-23T15:28:37;100536.97;;;22.24;42.39
45323;BME280;31382;50.200;8.674;2023-05-23T15:33:39;100555.00;;;21.91;42.39
45323;BME280;31382;50.200;8.674;2023-05-23T15:38:40;100560.06;;;21.82;42.80
45323;BME280;31382;50.200;8.674;2023-05-23T15:43:41;100558.06;;;21.49;42.77
45323;BME280;31382;50.200;8.674;2023-05-23T15:48:43;100564.19;;;21.56;42.78
45323;BME280;31382;50.200;8.674;2023-05-23T15:53:44;100554.59;;;21.99;42.27
45323;BME280;31382;50.200;8.674;2023-05-23T15:59:01;100556.38;;;22.22;41.96
45323;BME280;31382;50.200;8.674;2023-05-23T16:04:02;100569.00;;;22.57;41.05
45323;BME280;31382;50.200;8.674;2023-05-23T16:09:04;100560.44;;;22.70;40.33
45323;BME280;31382;50.200;8.674;2023-05-23T16:14:05;100564.50;;;22.68;39.71
45323;BME280;31382;50.200;8.674;2023-05-23T16:19:07;100562.16;;;22.76;39.50
45323;BME280;31382;50.200;8.674;2023-05-23T16:24:08;100555.81;;;23.10;38.44
45323;BME280;31382;50.200;8.674;2023-05-23T16:29:10;100555.06;;;23.14;37.85
45323;BME280;31382;50.200;8.674;2023-05-23T16:34:12;100554.47;;;23.34;37.61
45323;BME280;31382;50.200;8.674;2023-05-23T16:39:13;100566.00;;;23.81;36.52
45323;BME280;31382;50.200;8.674;2023-05-23T16:44:16;100564.19;;;23.91;36.33
45323;BME280;31382;50.200;8.674;2023-05-23T16:49:17;100557.09;;;23.95;35.71
45323;BME280;31382;50.200;8.674;2023-05-23T16:54:19;100566.09;;;23.91;36.10
45323;BME280;31382;50.200;8.674;2023-05-23T16:59:20;100571.31;;;23.92;35.88
45323;BME280;31382;50.200;8.674;2023-05-23T17:04:21;100579.00;;;24.18;34.97
45323;BME280;31382;50.200;8.674;2023-05-23T17:09:23;100570.09;;;24.05;34.35
45323;BME280;31382;50.200;8.674;2023-05-23T17:14:24;100570.91;;;23.56;34.73
45323;BME280;31382;50.200;8.674;2023-05-23T17:19:26;100577.25;;;23.35;34.92
45323;BME280;31382;50.200;8.674;2023-05-23T17:24:27;100585.84;;;23.22;34.88
45323;BME280;31382;50.200;8.674;2023-05-23T17:29:29;100588.06;;;22.86;35.02
45323;BME280;31382;50.200;8.674;2023-05-23T17:34:30;100589.53;;;22.37;34.94
45323;BME280;31382;50.200;8.674;2023-05-23T17:39:32;100595.03;;;22.09;35.68
45323;BME280;31382;50.200;8.674;2023-05-23T17:44:33;100595.34;;;21.67;36.95
45323;BME280;31382;50.200;8.674;2023-05-23T17:49:35;100602.69;;;21.66;36.96
45323;BME280;31382;50.200;8.674;2023-05-23T17:54:39;100614.94;;;21.11;38.13
45323;BME280;31382;50.200;8.674;2023-05-23T17:59:40;100613.16;;;21.05;38.12
45323;BME280;31382;50.200;8.674;2023-05-23T18:04:42;100615.19;;;20.74;39.15
45323;BME280;31382;50.200;8.674;2023-05-23T18:09:44;100620.94;;;20.43;39.63
45323;BME280;31382;50.200;8.674;2023-05-23T18:14:46;100623.22;;;20.15;39.71
45323;BME280;31382;50.200;8.674;2023-05-23T18:19:48;100633.56;;;19.83;40.22
45323;BME280;31382;50.200;8.674;2023-05-23T18:24:49;100636.38;;;19.58;40.43
45323;BME280;31382;50.200;8.674;2023-05-23T18:29:51;100641.59;;;19.41;41.07
45323;BME280;31382;50.200;8.674;2023-05-23T18:34:52;100642.13;;;19.31;41.34
45323;BME280;31382;50.200;8.674;2023-05-23T18:39:54;100653.69;;;19.08;41.58
45323;BME280;31382;50.200;8.674;2023-05-23T18:44:58;100647.22;;;18.77;42.04
45323;BME280;31382;50.200;8.674;2023-05-23T18:49:59;100649.28;;;18.57;42.42
45323;BME280;31382;50.200;8.674;2023-05-23T18:55:01;100651.44;;;18.48;42.55
45323;BME280;31382;50.200;8.674;2023-05-23T19:00:04;100652.59;;;18.34;42.73
45323;BME280;31382;50.200;8.674;2023-05-23T19:05:06;100659.13;;;18.26;43.16
45323;BME280;31382;50.200;8.674;2023-05-23T19:10:07;100662.13;;;18.18;43.04
45323;BME280;31382;50.200;8.674;2023-05-23T19:15:09;100672.84;;;18.06;43.55
45323;BME280;31382;50.200;8.674;2023-05-23T19:20:12;100678.75;;;18.03;43.46
45323;BME280;31382;50.200;8.674;2023-05-23T19:25:13;100673.78;;;17.80;43.83
45323;BME280;31382;50.200;8.674;2023-05-23T19:30:15;100684.09;;;17.64;44.23
45323;BME280;31382;50.200;8.674;2023-05-23T19:35:16;100683.69;;;17.61;44.53
45323;BME280;31382;50.200;8.674;2023-05-23T19:40:18;100691.03;;;17.47;44.53
45323;BME280;31382;50.200;8.674;2023-05-23T19:45:22;100688.78;;;17.31;45.06
45323;BME280;31382;50.200;8.674;2023-05-23T19:50:23;100683.59;;;17.22;45.25
45323;BME280;31382;50.200;8.674;2023-05-23T19:55:25;100686.53;;;17.14;45.43
45323;BME280;31382;50.200;8.674;2023-05-23T20:00:26;100695.72;;;16.93;45.75
45323;BME280;31382;50.200;8.674;2023-05-23T20:05:28;100714.06;;;16.78;45.83
45323;BME280;31382;50.200;8.674;2023-05-23T20:10:29;100717.22;;;16.75;45.71
45323;BME280;31382;50.200;8.674;2023-05-23T20:15:31;100728.03;;;16.68;45.77
45323;BME280;31382;50.200;8.674;2023-05-23T20:20:40;100735.38;;;16.61;46.00
45323;BME280;31382;50.200;8.674;2023-05-23T20:25:43;100732.41;;;16.49;46.19
45323;BME280;31382;50.200;8.674;2023-05-23T20:30:44;100737.81;;;16.36;46.34
45323;BME280;31382;50.200;8.674;2023-05-23T20:35:46;100745.50;;;16.39;46.20
45323;BME280;31382;50.200;8.674;2023-05-23T20:40:50;100740.50;;;16.36;46.05
45323;BME280;31382;50.200;8.674;2023-05-23T20:45:53;100747.16;;;16.26;46.01
45323;BME280;31382;50.200;8.674;2023-05-23T20:50:55;100738.59;;;16.23;45.84
45323;BME280;31382;50.200;8.674;2023-05-23T20:55:57;100741.28;;;16.16;45.81
45323;BME280;31382;50.200;8.674;2023-05-23T21:00:58;100757.75;;;16.15;46.07
45323;BME280;31382;50.200;8.674;2023-05-23T21:06:00;100752.50;;;16.06;46.40
45323;BME280;31382;50.200;8.674;2023-05-23T21:11:01;100758.56;;;16.02;46.35
45323;BME280;31382;50.200;8.674;2023-05-23T21:16:03;100759.38;;;16.02;46.40
45323;BME280;31382;50.200;8.674;2023-05-23T21:21:06;100760.81;;;15.98;46.49
45323;BME280;31382;50.200;8.674;2023-05-23T21:26:07;100758.88;;;15.85;46.82
45323;BME280;31382;50.200;8.674;2023-05-23T21:31:08;100770.50;;;15.79;46.77
45323;BME280;31382;50.200;8.674;2023-05-23T21:36:10;100766.47;;;15.69;47.00
45323;BME280;31382;50.200;8.674;2023-05-23T21:41:11;100773.50;;;15.56;47.45
45323;BME280;31382;50.200;8.674;2023-05-23T21:46:13;100783.53;;;15.34;47.74
45323;BME280;31382;50.200;8.674;2023-05-23T21:51:14;100780.97;;;15.26;47.96
45323;BME280;31382;50.200;8.674;2023-05-23T21:56:16;100784.88;;;15.17;48.21
45323;BME280;31382;50.200;8.674;2023-05-23T22:01:17;100792.53;;;15.13;48.31
45323;BME280;31382;50.200;8.674;2023-05-23T22:06:19;100798.09;;;15.05;48.37
45323;BME280;31382;50.200;8.674;2023-05-23T22:11:20;100801.81;;;15.04;48.53
45323;BME280;31382;50.200;8.674;2023-05-23T22:16:21;100794.84;;;14.95;48.74
45323;BME280;31382;50.200;8.674;2023-05-23T22:21:24;100798.22;;;14.75;49.42
45323;BME280;31382;50.200;8.674;2023-05-23T22:26:26;100800.06;;;14.75;49.20
45323;BME280;31382;50.200;8.674;2023-05-23T22:31:27;100810.47;;;14.71;49.46
45323;BME280;31382;50.200;8.674;2023-05-23T22:36:29;100808.72;;;14.63;49.50
45323;BME280;31382;50.200;8.674;2023-05-23T22:41:33;100809.09;;;14.60;49.46
45323;BME280;31382;50.200;8.674;2023-05-23T22:46:36;100813.00;;;14.43;50.14
45323;BME280;31382;50.200;8.674;2023-05-23T22:51:39;100811.66;;;14.32;50.40
45323;BME280;31382;50.200;8.674;2023-05-23T22:56:42;100806.88;;;14.19;50.66
45323;BME280;31382;50.200;8.674;2023-05-23T23:01:43;100808.47;;;14.14;50.95
45323;BME280;31382;50.200;8.674;2023-05-23T23:06:45;100812.59;;;14.09;50.98
45323;BME280;31382;50.200;8.674;2023-05-23T23:11:46;100816.16;;;14.10;50.90
45323;BME280;31382;50.200;8.674;2023-05-23T23:16:47;100807.66;;;14.13;51.06
45323;BME280;31382;50.200;8.674;2023-05-23T23:21:50;100814.16;;;14.04;51.03
45323;BME280;31382;50.200;8.674;2023-05-23T23:26:51;100818.38;;;14.06;51.24
45323;BME280;31382;50.200;8.674;2023-05-23T23:31:53;100826.69;;;14.05;51.45
45323;BME280;31382;50.200;8.674;2023-05-23T23:36:57;100823.16;;;14.04;51.70
45323;BME280;31382;50.200;8.674;2023-05-23T23:41:59;100819.31;;;13.99;52.12
45323;BME280;31382;50.200;8.674;2023-05-23T23:47:00;100820.91;;;13.93;52.25
45323;BME280;31382;50.200;8.674;2023-05-23T23:52:02;100820.25;;;13.91;52.09
45323;BME280;31382;50.200;8.674;2023-05-23T23:57:04;100819.69;;;13.81;52.28
